createdAt,value
2019-01-28T00:00:09.252Z,98785.30
2019-01-28T00:02:39.712Z,98793.06
2019-01-28T00:05:10.159Z,98793.06
2019-01-28T00:07:40.572Z,98787.50
2019-01-28T00:10:11.023Z,98786.70
2019-01-28T00:12:41.471Z,98797.88
2019-01-28T00:15:11.935Z,98790.88
2019-01-28T00:17:42.363Z,98790.88
2019-01-28T00:20:12.840Z,98785.05
2019-01-28T00:22:43.278Z,98785.05
2019-01-28T00:25:13.740Z,98788.90
2019-01-28T00:27:44.188Z,98790.58
2019-01-28T00:30:14.633Z,98795.95
2019-01-28T00:32:45.065Z,98803.19
2019-01-28T00:35:15.514Z,98786.91
2019-01-28T00:37:45.990Z,98786.91
2019-01-28T00:40:16.430Z,98771.92
2019-01-28T00:42:46.865Z,98771.92
2019-01-28T00:45:17.304Z,98779.32
2019-01-28T00:47:47.741Z,98786.89
2019-01-28T00:50:18.188Z,98790.70
2019-01-28T00:52:48.655Z,98790.70
2019-01-28T00:55:19.105Z,98798.85
2019-01-28T00:57:49.560Z,98793.03
2019-01-28T01:00:21.191Z,98796.78
2019-01-28T01:02:51.682Z,98795.97
2019-01-28T01:05:22.061Z,98799.01
2019-01-28T01:07:52.443Z,98802.75
2019-01-28T01:10:22.817Z,98804.21
2019-01-28T01:12:53.252Z,98815.61
2019-01-28T01:15:23.643Z,98815.73
2019-01-28T01:17:54.083Z,98807.97
2019-01-28T01:20:24.454Z,98804.69
2019-01-28T01:22:54.912Z,98791.07
2019-01-28T01:25:25.365Z,98791.07
2019-01-28T01:27:55.803Z,98789.59
2019-01-28T01:30:26.262Z,98790.02
2019-01-28T01:32:56.658Z,98786.70
2019-01-28T01:35:27.289Z,98795.16
2019-01-28T01:37:57.735Z,98796.83
2019-01-28T01:40:28.180Z,98791.28
2019-01-28T01:42:59.601Z,98785.55
2019-01-28T01:45:30.008Z,98784.22
2019-01-28T01:48:00.362Z,98787.95
2019-01-28T01:50:32.007Z,98785.79
2019-01-28T01:53:02.466Z,98785.79
2019-01-28T01:55:32.877Z,98781.31
2019-01-28T01:58:03.219Z,98774.84
2019-01-28T02:00:33.583Z,98766.90
2019-01-28T02:03:04.019Z,98761.20
2019-01-28T02:05:34.445Z,98765.66
2019-01-28T02:08:04.861Z,98771.98
2019-01-28T02:10:35.247Z,98769.62
2019-01-28T02:13:05.698Z,98754.21
2019-01-28T02:15:36.132Z,98757.14
2019-01-28T02:18:06.552Z,98757.14
2019-01-28T02:20:36.978Z,98748.69
2019-01-28T02:23:07.416Z,98743.63
2019-01-28T02:25:37.839Z,98749.48
2019-01-28T02:28:08.274Z,98751.52
2019-01-28T02:30:38.697Z,98751.52
2019-01-28T02:33:09.131Z,98754.67
2019-01-28T02:35:39.627Z,98749.08
2019-01-28T02:38:10.063Z,98748.98
2019-01-28T02:40:40.496Z,98750.01
2019-01-28T02:43:10.922Z,98741.09
2019-01-28T02:45:41.359Z,98739.94
2019-01-28T02:48:11.787Z,98736.02
2019-01-28T02:50:42.227Z,98736.02
2019-01-28T02:53:12.648Z,98730.14
2019-01-28T02:55:43.209Z,98724.92
2019-01-28T02:58:13.622Z,98719.12
2019-01-28T03:00:44.056Z,98721.10
2019-01-28T03:03:14.668Z,98724.33
2019-01-28T03:05:45.122Z,98715.20
2019-01-28T03:08:15.573Z,98715.39
2019-01-28T03:10:45.990Z,98719.69
2019-01-28T03:13:16.387Z,98720.56
2019-01-28T03:15:46.819Z,98718.74
2019-01-28T03:18:17.582Z,98730.80
2019-01-28T03:20:48.008Z,98728.41
2019-01-28T03:23:19.587Z,98728.75
2019-01-28T03:25:50.016Z,98729.81
2019-01-28T03:28:20.455Z,98721.06
2019-01-28T03:30:50.874Z,98715.92
2019-01-28T03:33:21.311Z,98709.06
2019-01-28T03:35:51.828Z,98711.54
2019-01-28T03:38:22.274Z,98702.59
2019-01-28T03:40:52.711Z,98696.85
2019-01-28T03:43:23.151Z,98706.45
2019-01-28T03:45:53.587Z,98712.58
2019-01-28T03:48:23.989Z,98715.35
2019-01-28T03:50:54.415Z,98705.80
2019-01-28T03:53:25.037Z,98706.64
2019-01-28T03:55:55.479Z,98707.66
2019-01-28T03:58:25.905Z,98698.89
2019-01-28T04:00:56.394Z,98693.88
2019-01-28T04:03:26.806Z,98695.89
2019-01-28T04:05:57.251Z,98700.45
2019-01-28T04:08:27.672Z,98710.19
2019-01-28T04:10:58.210Z,98704.51
2019-01-28T04:13:28.622Z,98698.03
2019-01-28T04:15:59.054Z,98698.20
2019-01-28T04:18:29.518Z,98701.62
2019-01-28T04:20:59.916Z,98698.16
2019-01-28T04:23:30.345Z,98689.77
2019-01-28T04:26:00.799Z,98686.48
2019-01-28T04:28:32.271Z,98694.08
2019-01-28T04:31:02.816Z,98694.59
2019-01-28T04:33:33.240Z,98685.28
2019-01-28T04:36:03.670Z,98681.27
2019-01-28T04:38:34.100Z,98685.48
2019-01-28T04:41:04.542Z,98681.77
2019-01-28T04:43:34.998Z,98679.77
2019-01-28T04:46:05.433Z,98682.27
2019-01-28T04:48:35.881Z,98681.77
2019-01-28T04:51:06.349Z,98667.40
2019-01-28T04:53:36.726Z,98669.02
2019-01-28T04:56:07.159Z,98669.98
2019-01-28T04:58:37.572Z,98664.26
2019-01-28T05:01:08.017Z,98661.54
2019-01-28T05:03:38.455Z,98665.42
2019-01-28T05:06:10.695Z,98660.63
2019-01-28T05:08:41.205Z,98669.31
2019-01-28T05:11:11.672Z,98684.81
2019-01-28T05:13:42.136Z,98684.03
2019-01-28T05:16:12.564Z,98671.20
2019-01-28T05:18:43.048Z,98675.75
2019-01-28T05:21:13.495Z,98680.22
2019-01-28T05:23:43.931Z,98682.81
2019-01-28T05:26:14.368Z,98681.25
2019-01-28T05:28:44.844Z,98682.21
2019-01-28T05:31:15.300Z,98675.91
2019-01-28T05:33:45.657Z,98679.75
2019-01-28T05:36:16.123Z,98665.71
2019-01-28T05:38:46.577Z,98658.41
2019-01-28T05:41:17.040Z,98664.04
2019-01-28T05:43:47.463Z,98663.88
2019-01-28T05:46:17.939Z,98657.90
2019-01-28T05:48:48.376Z,98659.41
2019-01-28T05:51:19.814Z,98670.10
2019-01-28T05:53:50.258Z,98673.81
2019-01-28T05:56:20.719Z,98679.33
2019-01-28T05:58:51.087Z,98681.34
2019-01-28T06:01:21.586Z,98678.33
2019-01-28T06:03:52.041Z,98684.52
2019-01-28T06:06:22.488Z,98681.52
2019-01-28T06:08:52.971Z,98681.64
2019-01-28T06:11:23.412Z,98681.92
2019-01-28T06:13:53.865Z,98673.81
2019-01-28T06:16:24.310Z,98685.56
2019-01-28T06:18:54.805Z,98685.06
2019-01-28T06:21:25.226Z,98682.98
2019-01-28T06:23:55.670Z,98688.83
2019-01-28T06:26:26.095Z,98693.26
2019-01-28T06:28:56.655Z,98694.94
2019-01-28T06:31:27.112Z,98695.06
2019-01-28T06:33:57.548Z,98701.74
2019-01-28T06:36:27.987Z,98693.79
2019-01-28T06:38:58.564Z,98697.88
2019-01-28T06:41:28.985Z,98692.72
2019-01-28T06:43:59.437Z,98699.03
2019-01-28T06:46:29.883Z,98691.45
2019-01-28T06:49:00.359Z,98689.89
2019-01-28T06:51:30.811Z,98685.36
2019-01-28T06:54:01.235Z,98683.50
2019-01-28T06:56:31.700Z,98687.91
2019-01-28T06:59:02.112Z,98686.78
2019-01-28T07:01:33.558Z,98698.02
2019-01-28T07:04:04.059Z,98694.05
2019-01-28T07:06:34.502Z,98702.43
2019-01-28T07:09:07.792Z,98706.19
2019-01-28T07:11:38.225Z,98704.84
2019-01-28T07:14:08.678Z,98703.91
2019-01-28T07:16:39.139Z,98695.21
2019-01-28T07:19:09.545Z,98695.28
2019-01-28T07:21:39.984Z,98695.85
2019-01-28T07:24:10.707Z,98699.42
2019-01-28T07:26:41.146Z,98680.79
2019-01-28T07:29:11.648Z,98691.57
2019-01-28T07:31:42.109Z,98699.41
2019-01-28T07:34:12.569Z,98702.84
2019-01-28T07:36:43.003Z,98701.81
2019-01-28T07:39:13.449Z,98711.10
2019-01-28T07:41:43.890Z,98706.00
2019-01-28T07:44:14.627Z,98701.62
2019-01-28T07:46:45.066Z,98694.73
2019-01-28T07:49:15.513Z,98689.34
2019-01-28T07:51:45.964Z,98696.89
2019-01-28T07:54:16.350Z,98693.26
2019-01-28T07:56:46.792Z,98693.79
2019-01-28T07:59:17.245Z,98689.09
2019-01-28T08:01:47.722Z,98691.26
2019-01-28T08:04:18.143Z,98692.80
2019-01-28T08:06:48.586Z,98686.52
2019-01-28T08:09:18.977Z,98689.02
2019-01-28T08:11:49.518Z,98683.03
2019-01-28T08:14:19.996Z,98676.91
2019-01-28T08:16:50.397Z,98672.83
2019-01-28T08:19:20.841Z,98665.63
2019-01-28T08:21:51.296Z,98668.22
2019-01-28T08:24:21.681Z,98664.32
2019-01-28T08:26:52.132Z,98671.28
2019-01-28T08:29:22.563Z,98677.53
2019-01-28T08:31:53.022Z,98680.80
2019-01-28T08:34:23.478Z,98679.31
2019-01-28T08:36:54.768Z,98672.19
2019-01-28T08:39:26.272Z,98669.75
2019-01-28T08:41:56.748Z,98673.45
2019-01-28T08:44:27.224Z,98670.45
2019-01-28T08:46:57.699Z,98671.94
2019-01-28T08:49:28.152Z,98683.11
2019-01-28T08:51:58.612Z,98665.46
2019-01-28T08:54:29.052Z,98671.14
2019-01-28T08:56:59.514Z,98672.08
2019-01-28T08:59:29.989Z,98672.14
2019-01-28T09:02:00.433Z,98674.96
2019-01-28T09:04:30.889Z,98673.50
2019-01-28T09:07:01.386Z,98668.24
2019-01-28T09:09:31.880Z,98675.27
2019-01-28T09:12:02.335Z,98675.89
2019-01-28T09:14:32.797Z,98675.36
2019-01-28T09:17:03.286Z,98676.74
2019-01-28T09:19:33.720Z,98676.74
2019-01-28T09:22:04.154Z,98680.48
2019-01-28T09:24:34.586Z,98685.91
2019-01-28T09:27:05.113Z,98682.78
2019-01-28T09:29:35.664Z,98687.09
2019-01-28T09:32:06.101Z,98686.16
2019-01-28T09:34:36.562Z,98685.83
2019-01-28T09:37:07.006Z,98691.61
2019-01-28T09:39:37.472Z,98684.53
2019-01-28T09:42:07.926Z,98688.00
2019-01-28T09:44:38.401Z,98678.93
2019-01-28T09:47:08.844Z,98675.96
2019-01-28T09:49:39.294Z,98671.14
2019-01-28T09:52:09.737Z,98666.70
2019-01-28T09:54:40.183Z,98663.02
2019-01-28T09:57:10.644Z,98656.64
2019-01-28T09:59:41.159Z,98655.06
2019-01-28T10:02:11.622Z,98651.46
2019-01-28T10:04:42.069Z,98654.06
2019-01-28T10:07:12.561Z,98648.42
2019-01-28T10:09:43.086Z,98635.43
2019-01-28T10:12:13.617Z,98636.53
2019-01-28T10:14:44.065Z,98633.52
2019-01-28T10:17:14.510Z,98627.67
2019-01-28T10:19:44.979Z,98627.98
2019-01-28T10:22:15.461Z,98620.38
2019-01-28T10:24:45.929Z,98603.75
2019-01-28T10:27:16.372Z,98608.20
2019-01-28T10:29:46.817Z,98598.30
2019-01-28T10:32:17.285Z,98598.28
2019-01-28T10:34:47.764Z,98603.48
2019-01-28T10:37:18.208Z,98596.20
2019-01-28T10:39:48.658Z,98595.77
2019-01-28T10:42:19.128Z,98583.11
2019-01-28T10:44:49.660Z,98583.32
2019-01-28T10:47:21.099Z,98580.55
2019-01-28T10:49:51.532Z,98578.23
2019-01-28T10:52:21.958Z,98573.80
2019-01-28T10:54:52.376Z,98564.11
2019-01-28T10:57:22.834Z,98557.58
2019-01-28T10:59:53.283Z,98552.58
2019-01-28T11:02:23.735Z,98555.94
2019-01-28T11:04:54.189Z,98552.08
2019-01-28T11:07:24.628Z,98552.57
2019-01-28T11:09:55.105Z,98544.66
2019-01-28T11:12:25.638Z,98537.30
2019-01-28T11:14:56.767Z,98545.61
2019-01-28T11:17:27.892Z,98551.74
2019-01-28T11:19:58.440Z,98544.86
2019-01-28T11:22:29.547Z,98548.09
2019-01-28T11:25:01.547Z,98540.92
2019-01-28T11:27:32.854Z,98542.05
2019-01-28T11:30:04.143Z,98535.05
2019-01-28T11:32:35.335Z,98537.86
2019-01-28T11:35:06.475Z,98531.05
2019-01-28T11:37:37.451Z,98530.39
2019-01-28T11:40:10.222Z,98524.78
2019-01-28T11:42:41.429Z,98517.38
2019-01-28T11:45:19.076Z,98523.11
2019-01-28T11:47:50.190Z,98515.47
2019-01-28T11:50:21.246Z,98503.83
2019-01-28T11:52:52.364Z,98496.08
2019-01-28T11:55:23.478Z,98492.13
2019-01-28T11:57:54.537Z,98487.21
2019-01-28T12:00:37.087Z,98485.91
2019-01-28T12:03:08.209Z,98490.48
2019-01-28T12:05:39.303Z,98491.84
2019-01-28T12:08:10.411Z,98486.55
2019-01-28T12:10:41.521Z,98490.06
2019-01-28T12:13:12.620Z,98498.06
2019-01-28T12:15:43.741Z,98497.63
2019-01-28T12:18:14.885Z,98497.70
2019-01-28T12:20:53.489Z,98500.49
2019-01-28T12:23:18.768Z,98500.74
2019-01-28T12:25:49.879Z,98504.98
2019-01-28T12:28:20.945Z,98516.74
2019-01-28T12:30:52.060Z,98513.22
2019-01-28T12:33:23.170Z,98510.56
2019-01-28T12:35:54.177Z,98501.27
2019-01-28T12:38:25.223Z,98504.83
2019-01-28T12:40:56.352Z,98505.55
2019-01-28T12:43:27.426Z,98497.55
2019-01-28T12:45:58.516Z,98503.67
2019-01-28T12:48:29.587Z,98496.98
2019-01-28T12:51:00.725Z,98497.31
2019-01-28T12:53:31.843Z,98497.14
2019-01-28T12:56:02.897Z,98489.86
2019-01-28T12:58:33.955Z,98484.08
2019-01-28T13:01:06.069Z,98480.33
2019-01-28T13:03:38.113Z,98482.38
2019-01-28T13:06:09.176Z,98486.30
2019-01-28T13:08:40.230Z,98489.03
2019-01-28T13:11:11.270Z,98487.05
2019-01-28T13:13:42.376Z,98488.08
2019-01-28T13:16:13.505Z,98478.26
2019-01-28T13:18:44.552Z,98489.31
2019-01-28T13:21:16.599Z,98481.00
2019-01-28T13:23:47.668Z,98475.02
2019-01-28T13:26:18.755Z,98470.46
2019-01-28T13:28:49.809Z,98469.25
2019-01-28T13:31:20.863Z,98472.73
2019-01-28T13:33:51.912Z,98462.67
2019-01-28T13:36:23.352Z,98458.16
2019-01-28T13:38:54.409Z,98453.77
2019-01-28T13:41:25.503Z,98445.71
2019-01-28T13:43:56.552Z,98457.95
2019-01-28T13:46:27.655Z,98458.72
2019-01-28T13:48:58.737Z,98459.32
2019-01-28T13:51:29.828Z,98457.02
2019-01-28T13:54:00.913Z,98458.42
2019-01-28T13:56:31.961Z,98437.63
2019-01-28T13:59:02.939Z,98440.32
2019-01-28T14:01:33.976Z,98442.58
2019-01-28T14:04:05.088Z,98441.26
2019-01-28T14:06:36.120Z,98443.23
2019-01-28T14:09:08.793Z,98452.65
2019-01-28T14:11:39.842Z,98445.55
2019-01-28T14:14:10.372Z,98455.61
2019-01-28T14:16:41.476Z,98461.98
2019-01-28T14:19:12.533Z,98462.26
2019-01-28T14:21:43.598Z,98462.35
2019-01-28T14:24:14.687Z,98463.09
2019-01-28T14:26:45.785Z,98478.83
2019-01-28T14:29:16.503Z,98468.13
2019-01-28T14:31:47.486Z,98462.23
2019-01-28T14:34:17.962Z,98460.01
2019-01-28T14:36:49.003Z,98453.77
2019-01-28T14:39:19.439Z,98458.52
2019-01-28T14:41:50.614Z,98455.16
2019-01-28T14:44:21.819Z,98447.97
2019-01-28T14:46:52.292Z,98451.63
2019-01-28T14:49:22.778Z,98446.77
2019-01-28T14:51:53.310Z,98443.71
2019-01-28T14:54:23.737Z,98445.55
2019-01-28T14:56:54.218Z,98448.54
2019-01-28T14:59:24.753Z,98445.55
2019-01-28T15:01:55.892Z,98448.69
2019-01-28T15:04:26.367Z,98450.25
2019-01-28T15:06:56.820Z,98439.28
2019-01-28T15:09:27.288Z,98427.53
2019-01-28T15:11:57.740Z,98431.34
2019-01-28T15:14:28.475Z,98427.94
2019-01-28T15:16:58.969Z,98430.27
2019-01-28T15:19:29.404Z,98431.28
2019-01-28T15:21:59.875Z,98420.25
2019-01-28T15:24:30.327Z,98424.69
2019-01-28T15:27:00.989Z,98421.28
2019-01-28T15:29:31.472Z,98411.11
2019-01-28T15:32:01.933Z,98421.00
2019-01-28T15:34:32.542Z,98414.45
2019-01-28T15:37:03.138Z,98411.59
2019-01-28T15:39:33.601Z,98407.80
2019-01-28T15:42:04.156Z,98418.55
2019-01-28T15:44:34.623Z,98421.80
2019-01-28T15:47:05.181Z,98422.62
2019-01-28T15:49:35.626Z,98412.72
2019-01-28T15:52:06.156Z,98412.19
2019-01-28T15:54:36.897Z,98403.19
2019-01-28T15:57:07.362Z,98412.45
2019-01-28T15:59:37.959Z,98402.08
2019-01-28T16:02:09.507Z,98398.25
2019-01-28T16:04:40.065Z,98394.45
2019-01-28T16:07:10.620Z,98393.98
2019-01-28T16:09:41.103Z,98400.41
2019-01-28T16:12:11.878Z,98396.22
2019-01-28T16:14:42.394Z,98395.98
2019-01-28T16:17:12.894Z,98401.41
2019-01-28T16:19:43.525Z,98395.47
2019-01-28T16:22:14.092Z,98397.30
2019-01-28T16:24:44.582Z,98399.55
2019-01-28T16:27:15.230Z,98392.75
2019-01-28T16:29:45.985Z,98396.10
2019-01-28T16:32:16.465Z,98400.09
2019-01-28T16:34:46.947Z,98410.93
2019-01-28T16:37:17.446Z,98410.93
2019-01-28T16:39:48.237Z,98423.85
2019-01-28T16:42:18.735Z,98417.89
2019-01-28T16:44:49.280Z,98416.50
2019-01-28T16:47:19.791Z,98417.49
2019-01-28T16:49:50.281Z,98410.02
2019-01-28T16:52:20.776Z,98406.59
2019-01-28T16:54:51.296Z,98408.56
2019-01-28T16:57:22.208Z,98403.80
2019-01-28T16:59:53.144Z,98412.11
2019-01-28T17:02:23.786Z,98410.59
2019-01-28T17:04:56.148Z,98407.53
2019-01-28T17:07:26.699Z,98398.88
2019-01-28T17:09:57.498Z,98393.31
2019-01-28T17:12:27.999Z,98393.68
2019-01-28T17:14:58.561Z,98389.64
2019-01-28T17:17:29.041Z,98395.33
2019-01-28T17:19:59.585Z,98397.67
2019-01-28T17:22:30.162Z,98402.25
2019-01-28T17:25:00.651Z,98405.20
2019-01-28T17:27:31.151Z,98411.70
2019-01-28T17:30:02.086Z,98416.97
2019-01-28T17:32:32.614Z,98416.65
2019-01-28T17:35:03.140Z,98420.30
2019-01-28T17:37:33.696Z,98420.77
2019-01-28T17:40:04.405Z,98397.88
2019-01-28T17:42:35.135Z,98417.17
2019-01-28T17:45:06.465Z,98422.86
2019-01-28T17:47:37.109Z,98385.58
2019-01-28T17:50:08.992Z,98398.94
2019-01-28T17:52:39.859Z,98408.48
2019-01-28T17:55:11.130Z,98383.53
2019-01-28T17:57:41.725Z,98390.13
2019-01-28T18:00:15.445Z,98384.98
2019-01-28T18:02:46.004Z,98391.10
2019-01-28T18:05:17.604Z,98387.21
2019-01-28T18:07:48.906Z,98388.45
2019-01-28T18:10:19.593Z,98393.73
2019-01-28T18:12:50.190Z,98396.47
2019-01-28T18:15:20.814Z,98398.95
2019-01-28T18:17:51.516Z,98400.08
2019-01-28T18:20:21.989Z,98407.87
2019-01-28T18:22:52.579Z,98400.91
2019-01-28T18:25:25.195Z,98402.92
2019-01-28T18:27:55.724Z,98400.06
2019-01-28T18:30:36.323Z,98396.81
2019-01-28T18:33:06.857Z,98396.03
2019-01-28T18:35:37.376Z,98410.44
2019-01-28T18:38:08.150Z,98413.95
2019-01-28T18:40:38.667Z,98414.98
2019-01-28T18:43:09.167Z,98418.09
2019-01-28T18:45:39.762Z,98418.50
2019-01-28T18:48:10.527Z,98429.24
2019-01-28T18:50:41.089Z,98429.65
2019-01-28T18:53:11.886Z,98434.51
2019-01-28T18:55:42.596Z,98437.98
2019-01-28T18:58:13.122Z,98436.13
2019-01-28T19:00:43.932Z,98431.32
2019-01-28T19:03:14.639Z,98446.87
2019-01-28T19:05:53.628Z,98432.06
2019-01-28T19:08:39.347Z,98444.28
2019-01-28T19:11:24.228Z,98456.59
2019-01-28T19:14:19.846Z,98425.13
2019-01-28T19:17:15.129Z,98454.83
2019-01-28T19:20:10.565Z,98452.70
2019-01-28T19:22:41.149Z,98429.89
2019-01-28T19:25:11.999Z,98454.00
2019-01-28T19:27:42.837Z,98427.44
2019-01-28T19:30:18.505Z,98411.17
2019-01-28T19:32:50.195Z,98439.46
2019-01-28T19:35:20.954Z,98450.79
2019-01-28T19:37:51.670Z,98444.98
2019-01-28T19:40:22.592Z,98446.06
2019-01-28T19:42:53.169Z,98460.29
2019-01-28T19:45:23.930Z,98458.99
2019-01-28T19:47:54.603Z,98449.59
2019-01-28T19:50:26.026Z,98457.09
2019-01-28T19:52:56.716Z,98471.05
2019-01-28T19:55:27.682Z,98470.69
2019-01-28T19:57:58.518Z,98468.80
2019-01-28T20:00:29.708Z,98467.03
2019-01-28T20:03:02.354Z,98460.13
2019-01-28T20:05:33.085Z,98456.71
2019-01-28T20:08:03.943Z,98463.47
2019-01-28T20:10:35.873Z,98457.45
2019-01-28T20:13:06.550Z,98444.18
2019-01-28T20:15:37.404Z,98436.69
2019-01-28T20:18:08.194Z,98451.77
2019-01-28T20:20:38.992Z,98460.97
2019-01-28T20:23:10.908Z,98466.01
2019-01-28T20:25:41.645Z,98471.14
2019-01-28T20:28:12.624Z,98475.86
2019-01-28T20:30:43.396Z,98475.50
2019-01-28T20:33:14.478Z,98483.61
2019-01-28T20:35:45.383Z,98481.84
2019-01-28T20:38:16.677Z,98474.08
2019-01-28T20:40:47.710Z,98486.89
2019-01-28T20:43:23.943Z,98487.41
2019-01-28T20:45:50.683Z,98491.70
2019-01-28T20:48:21.639Z,98489.38
2019-01-28T20:50:52.415Z,98492.80
2019-01-28T20:53:23.440Z,98486.84
2019-01-28T20:55:54.155Z,98495.77
2019-01-28T20:58:24.930Z,98490.02
2019-01-28T21:00:55.764Z,98488.96
2019-01-28T21:03:26.406Z,98497.50
2019-01-28T21:05:57.121Z,98494.98
2019-01-28T21:08:27.748Z,98487.13
2019-01-28T21:10:58.905Z,98484.30
2019-01-28T21:13:29.967Z,98489.72
2019-01-28T21:16:00.958Z,98478.97
2019-01-28T21:18:31.737Z,98467.97
2019-01-28T21:21:02.594Z,98473.78
2019-01-28T21:23:34.273Z,98474.58
2019-01-28T21:26:05.971Z,98474.70
2019-01-28T21:28:36.745Z,98481.66
2019-01-28T21:31:07.738Z,98479.78
2019-01-28T21:33:38.527Z,98461.34
2019-01-28T21:36:27.733Z,98460.38
2019-01-28T21:38:58.356Z,98454.33
2019-01-28T21:41:28.956Z,98454.84
2019-01-28T21:43:59.580Z,98466.73
2019-01-28T21:46:30.248Z,98466.10
2019-01-28T21:49:00.817Z,98473.73
2019-01-28T21:51:31.415Z,98477.21
2019-01-28T21:54:02.083Z,98474.37
2019-01-28T21:56:33.092Z,98476.83
2019-01-28T21:59:03.826Z,98478.59
2019-01-28T22:01:35.123Z,98463.16
2019-01-28T22:04:05.677Z,98468.19
2019-01-28T22:06:36.375Z,98481.92
2019-01-28T22:09:09.283Z,98481.72
2019-01-28T22:11:40.259Z,98477.42
2019-01-28T22:14:11.217Z,98474.66
2019-01-28T22:16:42.164Z,98474.66
2019-01-28T22:19:12.928Z,98477.91
2019-01-28T22:21:43.810Z,98478.17
2019-01-28T22:24:14.514Z,98472.16
2019-01-28T22:26:45.100Z,98478.30
2019-01-28T22:29:15.850Z,98487.47
2019-01-28T22:31:46.427Z,98482.30
2019-01-28T22:34:17.134Z,98482.50
2019-01-28T22:36:47.810Z,98482.50
2019-01-28T22:39:18.509Z,98477.87
2019-01-28T22:41:49.307Z,98473.03
2019-01-28T22:44:20.144Z,98472.52
2019-01-28T22:46:50.854Z,98468.02
2019-01-28T22:49:21.430Z,98474.33
2019-01-28T22:51:52.017Z,98470.98
2019-01-28T22:54:22.635Z,98471.00
2019-01-28T22:56:53.233Z,98466.63
2019-01-28T22:59:23.846Z,98469.37
2019-01-28T23:01:54.801Z,98469.37
2019-01-28T23:04:25.516Z,98470.34
2019-01-28T23:06:56.363Z,98488.48
2019-01-28T23:09:26.982Z,98505.87
2019-01-28T23:11:57.721Z,98505.87
2019-01-28T23:14:28.436Z,98510.84
2019-01-28T23:16:59.227Z,98492.12
2019-01-28T23:19:30.054Z,98497.20
2019-01-28T23:22:00.968Z,98497.20
2019-01-28T23:24:31.825Z,98484.95
2019-01-28T23:27:02.580Z,98489.73
2019-01-28T23:29:33.378Z,98489.73
2019-01-28T23:32:04.101Z,98491.70
2019-01-28T23:34:34.898Z,98490.05
2019-01-28T23:37:05.675Z,98488.76
2019-01-28T23:39:36.360Z,98494.33
2019-01-28T23:42:07.351Z,98499.37
2019-01-28T23:44:37.991Z,98486.46
2019-01-28T23:47:09.085Z,98484.78
2019-01-28T23:49:39.665Z,98482.58
2019-01-28T23:52:10.415Z,98477.63
2019-01-28T23:54:40.916Z,98480.30
2019-01-28T23:57:11.575Z,98483.97
2019-01-28T23:59:42.177Z,98499.90
